Albany, NH

11:22 PM EST on November 19, 2019 (GMT -0500)
Mittenstock | | Change Station
Active Advisory: Special Statement

Elev 895 ft 43.93 °N, 71.13 °W | Updated 12 seconds ago

Fog
Fog
34.3 °F
Feels Like 34 °F
N
0
Wind Variable Wind from ESE
Gusts 0.0 mph

Today
High -- | Low -- °F
--% Chance of Precip.
Yesterday
High -- | Low -- °F
Precip. -- in
Pressure 29.89 in
Visibility 0.5 miles
Clouds
Windchill 34 °F
Dew Point Not available.
Humidity Not available.
Rainfall 0.45 in
Snow Depth Not available.
6:44 AM 4:15 PM
Waning Gibbous, 47% visible
METAR KIZG 200354Z AUTO 00000KT 1/2SM FG VV006 02/01 A2987 RMK AO2 SLP120 T00170006
Pressure 29.89 in
Visibility 0.5 miles
Clouds
Windchill 34 °F
Dew Point Not available.
Humidity Not available.
Rainfall 0.45 in
Snow Depth Not available.
6:44 AM 4:15 PM
Waning Gibbous, 47% visible
METAR KIZG 200354Z AUTO 00000KT 1/2SM FG VV006 02/01 A2987 RMK AO2 SLP120 T00170006

Get Your Daily Forecast Email!

Thanks for signing up!

Be on the lookout for a verification email in your inbox.

You'll start receiving severe weather alerts in your inbox..

×

10-Day Weather Forecast

Almanac

Astronomy

Nov. 19, 2019 Rise Set
Actual Time
Civil Twilight
Nautical Twilight
Astronomical Twilight
Moon
Length of Visible Light
Length of Day
Tomorrow will be .
, % of the Moon is Illuminated

Today's Extremes

State Highs State Lows

Community

WunderPhotos

Category 6

Welcome to Category 6. This is the collective home for Weather Underground's featured writeups by Dr. Jeff Masters (right), Bob Henson (left), Chris Burt, and other regular contributors.

Nearby

Air Quality

  Air Quality AQ Index Pollutant
Not available.

Snow Depth

Station Depth Elevation

Earthquake Activity

City Distance Mag. Time & Date
Minimum magnitude displayed is 2.5.

Coastal Water Temperatures

Place Temperature

Stations

Nearby Weather Stations

Station Location Temp. Windchill Dew Point Humidity Wind Precip. Elev Updated Type
                   

Watches & Warnings

Special Statement
Issued: 9:46 PM EST Nov. 19, 2019 – National Weather Service

... Locally slick roadways possible tonight into early Wednesday
morning...

Areas of fog and patchy freezing drizzle may occur during the
overnight hours. In addition, some of the recent rains may
refreeze on roadways and sidewalks. Icy spots may lead to locally
slick conditions.

Allow extra time if traveling tonight and early Wednesday morning.

Jc


946 PM EST Tue Nov 19 2019

... Locally slick roadways possible tonight into early Wednesday
morning...

Areas of fog and patchy freezing drizzle may occur during the
overnight hours. In addition, some of the recent rains may
refreeze on roadways and sidewalks. Icy spots may lead to locally
slick conditions.

Allow extra time if traveling tonight and early Wednesday morning.

Jc